createdAt,value
2019-02-20T00:00:40.656Z,100541.98
2019-02-20T00:03:44.047Z,100545.53
2019-02-20T00:06:46.978Z,100553.89
2019-02-20T00:09:50.233Z,100536.32
2019-02-20T00:12:53.196Z,100538.96
2019-02-20T00:15:56.152Z,100545.00
2019-02-20T00:18:59.553Z,100546.00
2019-02-20T00:22:02.760Z,100540.27
2019-02-20T00:25:06.247Z,100538.97
2019-02-20T00:28:09.560Z,100532.81
2019-02-20T00:31:12.496Z,100533.75
2019-02-20T00:34:15.438Z,100539.88
2019-02-20T00:37:18.375Z,100541.98
2019-02-20T00:40:21.324Z,100545.52
2019-02-20T00:43:25.788Z,100543.78
2019-02-20T00:46:37.165Z,100549.05
2019-02-20T00:49:43.455Z,100550.30
2019-02-20T00:52:54.854Z,100560.91
2019-02-20T00:55:57.796Z,100555.60
2019-02-20T00:59:01.952Z,100560.88
2019-02-20T01:02:05.268Z,100567.92
2019-02-20T01:05:08.249Z,100560.45
2019-02-20T01:08:11.286Z,100557.38
2019-02-20T01:11:14.510Z,100560.83
2019-02-20T01:14:18.136Z,100555.66
2019-02-20T01:17:22.204Z,100547.73
2019-02-20T01:20:25.159Z,100557.82
2019-02-20T01:23:28.080Z,100552.06
2019-02-20T01:26:31.046Z,100545.45
2019-02-20T01:29:34.359Z,100551.09
2019-02-20T01:32:37.307Z,100553.23
2019-02-20T01:35:40.253Z,100544.04
2019-02-20T01:38:43.186Z,100543.98
2019-02-20T01:41:46.476Z,100542.17
2019-02-20T01:44:49.414Z,100546.09
2019-02-20T01:47:52.763Z,100552.33
2019-02-20T01:50:56.575Z,100555.38
2019-02-20T01:54:00.014Z,100556.29
2019-02-20T01:57:03.070Z,100559.36
2019-02-20T02:00:07.537Z,100552.43
2019-02-20T02:03:11.082Z,100556.75
2019-02-20T02:06:14.191Z,100561.63
2019-02-20T02:09:17.126Z,100552.87
2019-02-20T02:12:20.841Z,100553.73
2019-02-20T02:15:24.172Z,100553.31
2019-02-20T02:18:27.138Z,100556.43
2019-02-20T02:21:30.089Z,100551.07
2019-02-20T02:24:33.333Z,100543.62
2019-02-20T02:27:36.695Z,100541.35
2019-02-20T02:30:39.997Z,100540.97
2019-02-20T02:33:42.947Z,100545.45
2019-02-20T02:36:45.906Z,100546.73
2019-02-20T02:39:48.862Z,100544.87
2019-02-20T02:42:52.149Z,100547.56
2019-02-20T02:45:55.880Z,100548.32
2019-02-20T02:48:59.473Z,100546.67
2019-02-20T02:52:02.438Z,100543.13
2019-02-20T02:55:05.613Z,100542.70
2019-02-20T02:58:08.560Z,100538.80
2019-02-20T03:01:11.760Z,100538.45
2019-02-20T03:04:14.827Z,100534.03
2019-02-20T03:07:18.039Z,100537.04
2019-02-20T03:10:21.008Z,100534.80
2019-02-20T03:13:23.923Z,100537.94
2019-02-20T03:16:28.318Z,100539.63
2019-02-20T03:19:31.694Z,100538.80
2019-02-20T03:22:34.657Z,100533.53
2019-02-20T03:25:37.602Z,100534.87
2019-02-20T03:28:40.869Z,100543.18
2019-02-20T03:31:43.828Z,100541.93
2019-02-20T03:34:47.159Z,100541.51
2019-02-20T03:37:50.758Z,100539.77
2019-02-20T03:40:53.707Z,100542.37
2019-02-20T03:43:56.639Z,100553.81
2019-02-20T03:46:59.607Z,100555.13
2019-02-20T03:50:02.658Z,100547.20
2019-02-20T03:53:05.983Z,100546.77
2019-02-20T03:56:10.102Z,100555.56
2019-02-20T03:59:13.683Z,100548.50
2019-02-20T04:02:17.076Z,100552.43
2019-02-20T04:05:20.020Z,100552.50
2019-02-20T04:08:23.653Z,100561.25
2019-02-20T04:11:26.957Z,100552.43
2019-02-20T04:14:30.119Z,100554.19
2019-02-20T04:17:33.087Z,100550.69
2019-02-20T04:20:36.320Z,100552.85
2019-02-20T04:23:39.645Z,100551.55
2019-02-20T04:26:42.596Z,100550.71
2019-02-20T04:29:45.532Z,100548.92
2019-02-20T04:32:48.479Z,100543.67
2019-02-20T04:35:51.440Z,100550.76
2019-02-20T04:38:54.372Z,100547.28
2019-02-20T04:41:57.323Z,100549.02
2019-02-20T04:45:00.601Z,100542.88
2019-02-20T04:48:03.562Z,100538.86
2019-02-20T04:51:06.859Z,100542.39
2019-02-20T04:54:13.291Z,100543.72
2019-02-20T04:57:14.672Z,100541.93
2019-02-20T05:00:17.921Z,100545.40
2019-02-20T05:03:23.118Z,100541.45
2019-02-20T05:06:26.598Z,100542.81
2019-02-20T05:09:30.179Z,100541.55
2019-02-20T05:12:33.765Z,100542.42
2019-02-20T05:15:37.006Z,100542.00
2019-02-20T05:18:40.653Z,100541.10
2019-02-20T05:21:43.584Z,100545.95
2019-02-20T05:24:46.532Z,100542.44
2019-02-20T05:27:50.159Z,100538.91
2019-02-20T05:30:53.132Z,100542.42
2019-02-20T05:33:56.093Z,100548.08
2019-02-20T05:36:59.339Z,100555.99
2019-02-20T05:40:02.528Z,100550.79
2019-02-20T05:43:07.293Z,100548.08
2019-02-20T05:46:10.305Z,100548.48
2019-02-20T05:49:13.264Z,100560.42
2019-02-20T05:52:17.761Z,100557.72
2019-02-20T05:55:21.034Z,100562.97
2019-02-20T05:58:24.036Z,100571.35
2019-02-20T06:01:27.416Z,100565.17
2019-02-20T06:04:30.782Z,100568.73
2019-02-20T06:07:34.127Z,100570.06
2019-02-20T06:10:37.133Z,100570.56
2019-02-20T06:13:40.413Z,100563.98
2019-02-20T06:16:44.122Z,100567.92
2019-02-20T06:19:47.487Z,100568.36
2019-02-20T06:22:50.408Z,100563.99
2019-02-20T06:25:53.731Z,100570.56
2019-02-20T06:28:57.031Z,100571.45
2019-02-20T06:32:00.378Z,100571.45
2019-02-20T06:35:03.326Z,100576.28
2019-02-20T06:38:10.662Z,100576.71
2019-02-20T06:41:13.124Z,100582.44
2019-02-20T06:44:16.473Z,100592.09
2019-02-20T06:47:19.440Z,100589.44
2019-02-20T06:50:22.374Z,100590.75
2019-02-20T06:53:25.339Z,100592.06
2019-02-20T06:56:28.280Z,100596.05
2019-02-20T06:59:31.611Z,100598.23
2019-02-20T07:02:35.801Z,100599.52
2019-02-20T07:05:42.094Z,100608.31
2019-02-20T07:09:42.179Z,100615.33
2019-02-20T07:13:35.901Z,100612.25
2019-02-20T07:17:57.052Z,100619.70
2019-02-20T07:22:06.413Z,100625.43
2019-02-20T07:25:46.928Z,100634.64
2019-02-20T07:29:53.036Z,100630.23
2019-02-20T07:32:56.670Z,100635.05
2019-02-20T07:35:59.961Z,100638.55
2019-02-20T07:39:04.628Z,100644.25
2019-02-20T07:42:09.487Z,100641.63
2019-02-20T07:45:14.237Z,100649.94
2019-02-20T07:48:17.873Z,100648.18
2019-02-20T07:51:21.218Z,100648.62
2019-02-20T07:54:24.176Z,100654.75
2019-02-20T07:57:27.517Z,100656.05
2019-02-20T08:00:30.489Z,100662.67
2019-02-20T08:03:33.575Z,100672.73
2019-02-20T08:06:37.510Z,100675.36
2019-02-20T08:09:40.901Z,100670.87
2019-02-20T08:12:43.936Z,100675.88
2019-02-20T08:15:47.670Z,100686.09
2019-02-20T08:18:50.631Z,100690.25
2019-02-20T08:21:53.581Z,100693.07
2019-02-20T08:24:57.643Z,100695.41
2019-02-20T08:28:00.597Z,100693.19
2019-02-20T08:31:04.549Z,100707.77
2019-02-20T08:34:09.697Z,100705.59
2019-02-20T08:37:12.628Z,100706.86
2019-02-20T08:40:15.751Z,100709.92
2019-02-20T08:43:18.717Z,100707.75
2019-02-20T08:46:21.672Z,100715.19
2019-02-20T08:49:25.007Z,100710.80
2019-02-20T08:52:27.991Z,100711.52
2019-02-20T08:55:32.309Z,100717.17
2019-02-20T08:58:35.732Z,100707.23
2019-02-20T09:01:38.750Z,100712.99
2019-02-20T09:04:43.476Z,100715.66
2019-02-20T09:07:47.167Z,100714.34
2019-02-20T09:10:50.446Z,100712.53
2019-02-20T09:13:53.843Z,100717.78
2019-02-20T09:16:56.804Z,100719.95
2019-02-20T09:20:00.150Z,100720.34
2019-02-20T09:23:03.340Z,100727.34
2019-02-20T09:26:06.303Z,100722.20
2019-02-20T09:29:09.708Z,100723.91
2019-02-20T09:32:14.854Z,100728.26
2019-02-20T09:35:17.810Z,100731.34
2019-02-20T09:38:21.071Z,100733.56
2019-02-20T09:41:24.017Z,100729.02
2019-02-20T09:44:28.338Z,100729.80
2019-02-20T09:47:31.666Z,100724.87
2019-02-20T09:50:34.667Z,100726.59
2019-02-20T09:53:37.625Z,100725.83
2019-02-20T09:56:40.925Z,100721.43
2019-02-20T09:59:44.201Z,100729.28
2019-02-20T10:02:47.502Z,100732.80
2019-02-20T10:05:50.828Z,100733.64
2019-02-20T10:08:54.117Z,100728.95
2019-02-20T10:11:57.077Z,100732.91
2019-02-20T10:15:00.349Z,100738.00
2019-02-20T10:18:03.300Z,100739.84
2019-02-20T10:21:06.228Z,100746.89
2019-02-20T10:24:09.595Z,100739.07
2019-02-20T10:27:12.568Z,100743.37
2019-02-20T10:30:15.988Z,100739.64
2019-02-20T10:33:19.726Z,100744.61
2019-02-20T10:36:22.662Z,100742.00
2019-02-20T10:39:25.624Z,100748.61
2019-02-20T10:42:28.559Z,100751.97
2019-02-20T10:45:31.895Z,100759.81
2019-02-20T10:48:34.863Z,100756.77
2019-02-20T10:51:37.798Z,100754.61
2019-02-20T10:54:41.064Z,100758.00
2019-02-20T10:57:44.002Z,100764.56
2019-02-20T11:00:47.151Z,100764.41
2019-02-20T11:03:50.127Z,100754.56
2019-02-20T11:06:53.194Z,100759.02
2019-02-20T11:09:56.198Z,100756.44
2019-02-20T11:12:59.127Z,100762.70
2019-02-20T11:16:02.262Z,100760.45
2019-02-20T11:19:05.211Z,100756.30
2019-02-20T11:22:08.543Z,100763.14
2019-02-20T11:25:11.883Z,100764.96
2019-02-20T11:28:15.035Z,100761.38
2019-02-20T11:31:18.021Z,100761.72
2019-02-20T11:34:21.090Z,100768.30
2019-02-20T11:37:24.471Z,100760.38
2019-02-20T11:40:27.451Z,100770.95
2019-02-20T11:43:30.709Z,100752.03
2019-02-20T11:46:34.025Z,100754.16
2019-02-20T11:49:37.304Z,100757.24
2019-02-20T11:52:40.263Z,100749.06
2019-02-20T11:55:43.526Z,100751.27
2019-02-20T11:58:46.787Z,100750.51
2019-02-20T12:01:50.723Z,100750.17
2019-02-20T12:04:55.159Z,100757.55
2019-02-20T12:07:58.099Z,100749.64
2019-02-20T12:11:02.135Z,100750.72
2019-02-20T12:14:05.184Z,100751.12
2019-02-20T12:17:08.492Z,100754.07
2019-02-20T12:20:11.918Z,100753.25
2019-02-20T12:23:14.861Z,100754.34
2019-02-20T12:26:17.795Z,100746.84
2019-02-20T12:29:20.792Z,100748.38
2019-02-20T12:32:23.720Z,100757.11
2019-02-20T12:35:26.700Z,100746.39
2019-02-20T12:38:30.262Z,100744.77
2019-02-20T12:41:33.951Z,100741.61
2019-02-20T12:44:36.901Z,100752.80
2019-02-20T12:47:39.831Z,100754.72
2019-02-20T12:50:42.795Z,100756.09
2019-02-20T12:53:45.723Z,100753.89
2019-02-20T12:56:48.671Z,100747.43
2019-02-20T12:59:51.755Z,100741.05
2019-02-20T13:02:55.195Z,100747.19
2019-02-20T13:05:58.774Z,100748.80
2019-02-20T13:09:03.848Z,100736.47
2019-02-20T13:12:09.524Z,100743.06
2019-02-20T13:15:12.489Z,100745.10
2019-02-20T13:18:15.846Z,100742.33
2019-02-20T13:21:19.167Z,100746.70
2019-02-20T13:24:22.600Z,100740.44
2019-02-20T13:27:26.269Z,100735.06
2019-02-20T13:30:29.591Z,100730.09
2019-02-20T13:33:32.627Z,100732.86
2019-02-20T13:36:36.535Z,100734.48
2019-02-20T13:39:39.458Z,100730.31
2019-02-20T13:42:43.757Z,100733.02
2019-02-20T13:45:47.099Z,100730.76
2019-02-20T13:48:50.071Z,100732.08
2019-02-20T13:51:53.028Z,100731.94
2019-02-20T13:54:55.971Z,100727.39
2019-02-20T13:57:58.928Z,100726.66
2019-02-20T14:01:02.197Z,100723.79
2019-02-20T14:04:06.532Z,100733.91
2019-02-20T14:07:10.106Z,100729.08
2019-02-20T14:10:13.183Z,100738.70
2019-02-20T14:13:17.909Z,100727.12
2019-02-20T14:16:21.672Z,100720.92
2019-02-20T14:19:25.436Z,100724.17
2019-02-20T14:22:28.407Z,100726.72
2019-02-20T14:25:32.148Z,100734.59
2019-02-20T14:28:35.495Z,100723.05
2019-02-20T14:31:39.272Z,100717.30
2019-02-20T14:34:45.531Z,100720.33
2019-02-20T14:37:48.618Z,100718.53
2019-02-20T14:40:51.628Z,100719.38
2019-02-20T14:43:55.048Z,100721.73
2019-02-20T14:46:58.228Z,100714.38
2019-02-20T14:50:21.534Z,100715.70
2019-02-20T14:53:24.502Z,100710.22
2019-02-20T14:56:28.160Z,100717.09
2019-02-20T14:59:31.541Z,100720.54
2019-02-20T15:02:34.504Z,100715.23
2019-02-20T15:05:37.777Z,100720.05
2019-02-20T15:08:41.142Z,100724.63
2019-02-20T15:11:44.107Z,100722.11
2019-02-20T15:14:48.277Z,100724.92
2019-02-20T15:17:51.233Z,100726.23
2019-02-20T15:20:54.662Z,100726.17
2019-02-20T15:23:58.035Z,100727.28
2019-02-20T15:27:01.444Z,100731.61
2019-02-20T15:30:07.047Z,100731.02
2019-02-20T15:33:10.117Z,100738.32
2019-02-20T15:36:13.401Z,100736.62
2019-02-20T15:39:17.276Z,100736.47
2019-02-20T15:42:21.141Z,100736.39
2019-02-20T15:45:24.214Z,100742.16
2019-02-20T15:48:28.710Z,100740.88
2019-02-20T15:51:32.063Z,100746.28
2019-02-20T15:54:37.300Z,100737.80
2019-02-20T15:57:40.916Z,100740.07
2019-02-20T16:00:43.888Z,100736.05
2019-02-20T16:03:47.192Z,100741.47
2019-02-20T16:06:51.113Z,100737.00
2019-02-20T16:09:55.348Z,100735.75
2019-02-20T16:12:58.829Z,100745.00
2019-02-20T16:16:01.770Z,100746.72
2019-02-20T16:19:05.135Z,100750.02
2019-02-20T16:22:08.100Z,100750.02
2019-02-20T16:25:12.385Z,100751.27
2019-02-20T16:28:15.337Z,100746.92
2019-02-20T16:31:18.631Z,100742.58
2019-02-20T16:34:22.023Z,100751.33
2019-02-20T16:37:25.993Z,100751.77
2019-02-20T16:40:29.335Z,100761.87
2019-02-20T16:43:32.327Z,100757.87
2019-02-20T16:46:35.490Z,100758.84
2019-02-20T16:49:39.182Z,100768.48
2019-02-20T16:52:42.154Z,100765.02
2019-02-20T16:55:45.112Z,100772.08
2019-02-20T16:58:48.677Z,100777.11
2019-02-20T17:01:53.000Z,100776.78
2019-02-20T17:04:59.216Z,100779.39
2019-02-20T17:08:01.495Z,100782.91
2019-02-20T17:11:04.550Z,100790.36
2019-02-20T17:14:09.128Z,100794.88
2019-02-20T17:17:12.631Z,100788.27
2019-02-20T17:20:17.609Z,100794.39
2019-02-20T17:23:22.025Z,100798.06
2019-02-20T17:26:25.567Z,100803.26
2019-02-20T17:29:28.516Z,100804.70
2019-02-20T17:32:31.846Z,100810.91
2019-02-20T17:35:35.106Z,100809.25
2019-02-20T17:38:38.454Z,100811.04
2019-02-20T17:41:41.762Z,100814.22
2019-02-20T17:44:45.093Z,100806.77
2019-02-20T17:47:48.798Z,100816.46
2019-02-20T17:50:51.865Z,100814.36
2019-02-20T17:53:54.792Z,100820.95
2019-02-20T17:56:57.772Z,100825.00
2019-02-20T18:00:00.745Z,100828.05
2019-02-20T18:03:04.612Z,100825.92
2019-02-20T18:06:08.128Z,100829.00
2019-02-20T18:09:11.269Z,100824.67
2019-02-20T18:12:14.607Z,100829.08
2019-02-20T18:15:17.915Z,100836.09
2019-02-20T18:18:21.559Z,100836.66
2019-02-20T18:21:24.524Z,100835.38
2019-02-20T18:24:27.495Z,100844.17
2019-02-20T18:27:30.562Z,100842.06
2019-02-20T18:30:35.097Z,100844.67
2019-02-20T18:33:38.134Z,100841.17
2019-02-20T18:36:41.587Z,100841.22
2019-02-20T18:39:45.414Z,100847.85
2019-02-20T18:42:48.423Z,100853.57
2019-02-20T18:45:51.713Z,100844.28
2019-02-20T18:48:55.440Z,100848.33
2019-02-20T18:51:58.898Z,100852.33
2019-02-20T18:55:05.979Z,100841.31
2019-02-20T18:58:06.835Z,100844.88
2019-02-20T19:01:10.186Z,100843.55
2019-02-20T19:04:13.237Z,100854.15
2019-02-20T19:07:17.589Z,100852.83
2019-02-20T19:10:33.358Z,100852.41
2019-02-20T19:14:22.117Z,100854.57
2019-02-20T19:18:06.690Z,100857.24
2019-02-20T19:22:09.892Z,100857.22
2019-02-20T19:26:27.730Z,100869.09
2019-02-20T19:30:20.596Z,100859.41
2019-02-20T19:34:21.226Z,100860.28
2019-02-20T19:38:06.493Z,100853.23
2019-02-20T19:42:05.047Z,100852.34
2019-02-20T19:45:54.148Z,100854.12
2019-02-20T19:49:48.157Z,100851.02
2019-02-20T19:53:30.657Z,100851.92
2019-02-20T19:57:26.855Z,100851.89
2019-02-20T20:01:20.240Z,100856.73
2019-02-20T20:05:07.641Z,100860.25
2019-02-20T20:08:59.877Z,100864.17
2019-02-20T20:12:53.599Z,100855.85
2019-02-20T20:16:34.217Z,100859.78
2019-02-20T20:20:20.203Z,100860.66
2019-02-20T20:24:27.515Z,100861.07
2019-02-20T20:28:34.868Z,100856.73
2019-02-20T20:32:34.108Z,100855.00
2019-02-20T20:36:23.479Z,100856.77
2019-02-20T20:40:22.018Z,100851.94
2019-02-20T20:44:15.215Z,100845.34
2019-02-20T20:48:11.967Z,100847.13
2019-02-20T20:52:41.137Z,100852.39
2019-02-20T20:56:41.399Z,100851.95
2019-02-20T21:00:20.869Z,100861.61
2019-02-20T21:03:24.782Z,100862.05
2019-02-20T21:07:23.217Z,100858.50
2019-02-20T21:11:30.421Z,100858.50
2019-02-20T21:15:53.252Z,100869.03
2019-02-20T21:19:43.867Z,100863.79
2019-02-20T21:23:37.227Z,100860.26
2019-02-20T21:27:29.013Z,100867.25
2019-02-20T21:31:06.989Z,100865.95
2019-02-20T21:34:59.695Z,100868.59
2019-02-20T21:38:37.123Z,100862.00
2019-02-20T21:42:40.151Z,100865.51
2019-02-20T21:46:19.719Z,100866.38
2019-02-20T21:50:51.096Z,100859.80
2019-02-20T21:54:50.798Z,100869.05
2019-02-20T21:58:37.505Z,100876.89
2019-02-20T22:02:05.792Z,100881.75
2019-02-20T22:06:03.107Z,100881.74
2019-02-20T22:09:57.606Z,100889.70
2019-02-20T22:14:06.366Z,100891.81
2019-02-20T22:18:07.098Z,100889.66
2019-02-20T22:22:19.289Z,100892.77
2019-02-20T22:26:08.789Z,100897.50
2019-02-20T22:30:21.055Z,100889.67
2019-02-20T22:34:33.518Z,100896.22
2019-02-20T22:38:28.365Z,100885.70
2019-02-20T22:42:51.028Z,100890.57
2019-02-20T22:46:18.544Z,100896.31
2019-02-20T22:50:10.241Z,100897.11
2019-02-20T22:54:07.547Z,100900.19
2019-02-20T22:57:48.645Z,100906.32
2019-02-20T23:02:06.870Z,100901.14
2019-02-20T23:05:57.484Z,100901.59
2019-02-20T23:09:35.803Z,100907.27
2019-02-20T23:13:40.870Z,100905.53
2019-02-20T23:16:44.539Z,100907.29
2019-02-20T23:19:47.489Z,100910.38
2019-02-20T23:22:50.448Z,100909.47
2019-02-20T23:25:54.510Z,100912.58
2019-02-20T23:28:57.960Z,100913.06
2019-02-20T23:32:01.027Z,100909.09
2019-02-20T23:35:04.518Z,100917.00
2019-02-20T23:38:07.476Z,100924.93
2019-02-20T23:41:10.769Z,100909.54
2019-02-20T23:44:13.711Z,100912.14
2019-02-20T23:47:16.665Z,100926.26
2019-02-20T23:50:19.616Z,100921.41
2019-02-20T23:53:22.964Z,100927.12
2019-02-20T23:56:26.227Z,100925.34
2019-02-20T23:59:29.264Z,100933.70
